Locust Gap, PA (17840)

04:50 AM EDT del 03 Settembre 2015 (GMT -0400)
Kulpmont | | Change Station
CLOSE
Current Station
Stazione meteo personale
Location: Kulpmont, PA
Altitudine: 1142 ft
Stazioni meteo nelle vicinanze

Alt. 1142 ft 40.79 °N, 76.47 °W | Updated 8 minutes ago

Parzialmente nuvoloso
Parzialmente nuvoloso
64.8 °F
Sembra 64.8 °F
N
2.7
Vento Variabile Vento da Est

Oggi
Massima -- | Minima -- °F
--% Possibilità di precip.
Ieri
Massima -- | Minima -- °F
Precip. -- in
6:34 AM 7:35 PM
Gobba a levante, 72% visible
Pressione 29.92 in
Visibilità 2.5 miglia
Nuvole Sereno
Punto di rugiada 63 °F
Umidità 94%
Piovosità 0.00 in
Spessore del manto nevoso Non disponibile.
Raggi UV 0 fuori da 12
Polline 9.60 fuori da 12
Qualità dell'aria Non disponibile.
Flu Activity Non disponibile.
METAR KSEG 030753Z AUTO 00000KT 2 1/2SM BR CLR 19/18 A2993 RMK AO2 SLP130 T01890178
Pressione 29.92 in
Visibilità 2.5 miglia
Nuvole Sereno
Punto di rugiada 63 °F
Umidità 94%
Piovosità 0.00 in
Spessore del manto nevoso Non disponibile.
Raggi UV 0 fuori da 12
Polline 9.60 fuori da 12
Qualità dell'aria Non disponibile.
Flu Activity Non disponibile.
METAR KSEG 030753Z AUTO 00000KT 2 1/2SM BR CLR 19/18 A2993 RMK AO2 SLP130 T01890178

10-Day Weather Forecast

×

Almanac

Astronomia

Sep. 03, 2015 Alba Tramonto
Ora attuale
Crepuscolo civile
Crepuscolo nautico
Crepuscolo astronomico
Luna
Estensione della luce visibile
Lunghezza del giorno
Tomorrow will be .
, % of the Moon is Illuminated

Gli estremi di oggi

State Highs State Lows

Community

WunderPhotos

Upload Photos

1,851,919 foto caricate!

WunderBlogs® & News

Nearby

Qualità dell'aria

  Qualità dell'aria Indice AQ Inquinante
Not available.

Profondità neve

Stazione Profondità Altitudine

Attività sismica

Città  Distanza Mag. Data & Ora
Minimo Magnitudo Mostrato è 2.5.

Temperature delle acque costiere

Località Temperatura

Stations

Stazioni meteo nelle vicinanze

Ubicazione della stazione Temp. Raffreddamento del vento Punto di rugiada Umidità Vento Precip. Alt. Aggiornato Tipo